Time;durP1;ratioP1;P1;durP2;ratioP2;P2;SDS_P1;SDS_P2;PMS_P1;PMS_P2;Temp;Humidity;BMP_temperature;BMP_pressure;BME280_temperature;BME280_humidity;BME280_pressure;Samples;Min_cycle;Max_cycle;Signal;HPM_P1;HPM_P2
2023/04/16 00:02:11;;;;;;;58.55;22.95;;;8.50;94.60;;;;;;4942459;28;20053;-79
2023/04/16 00:04:37;;;;;;;60.33;21.40;;;8.50;94.60;;;;;;4966950;28;20041;-80
2023/04/16 00:07:03;;;;;;;54.47;22.85;;;8.50;94.70;;;;;;4977805;28;20082;-81
2023/04/16 00:09:28;;;;;;;56.63;20.23;;;8.50;94.70;;;;;;4993575;28;20188;-79
2023/04/16 00:11:54;;;;;;;47.70;20.15;;;8.50;94.70;;;;;;4993845;28;20061;-79
2023/04/16 00:14:20;;;;;;;50.63;20.65;;;8.50;94.70;;;;;;4977937;28;20054;-79
2023/04/16 00:16:46;;;;;;;47.22;18.83;;;8.40;94.60;;;;;;4994167;28;20490;-80
2023/04/16 00:19:11;;;;;;;45.38;20.20;;;8.50;94.70;;;;;;4977604;28;20050;-81
2023/04/16 00:21:37;;;;;;;44.25;18.30;;;8.50;94.70;;;;;;4994251;28;20050;-81
2023/04/16 00:24:03;;;;;;;44.42;19.38;;;8.50;94.60;;;;;;4993425;28;20038;-79
2023/04/16 00:26:29;;;;;;;47.85;20.90;;;8.50;94.50;;;;;;4993550;28;20043;-81
2023/04/16 00:28:54;;;;;;;43.42;19.27;;;8.50;94.50;;;;;;4977148;28;20078;-78
2023/04/16 00:31:31;;;;;;;43.00;17.90;;;8.50;94.60;;;;;;4993784;28;20038;-81
2023/04/16 00:33:58;;;;;;;42.95;18.67;;;8.50;94.60;;;;;;4977473;28;20035;-79
2023/04/16 00:36:25;;;;;;;38.83;16.92;;;8.50;94.60;;;;;;4976755;28;20096;-78
2023/04/16 00:38:52;;;;;;;47.17;20.50;;;8.50;94.70;;;;;;4993483;28;20078;-81
2023/04/16 00:41:18;;;;;;;40.70;18.30;;;8.50;94.60;;;;;;4993025;28;20043;-79
2023/04/16 00:43:43;;;;;;;46.78;18.02;;;8.50;94.60;;;;;;4960620;28;20108;-80
2023/04/16 00:46:10;;;;;;;48.47;18.80;;;8.50;94.60;;;;;;4993402;28;20129;-79
2023/04/16 00:48:37;;;;;;;44.00;18.35;;;8.50;94.70;;;;;;4993509;28;20042;-80
2023/04/16 00:51:05;;;;;;;48.80;20.08;;;8.50;94.50;;;;;;4977014;28;20509;-78
2023/04/16 00:53:33;;;;;;;41.15;17.58;;;8.50;94.60;;;;;;4976545;28;20121;-79
2023/04/16 00:55:59;;;;;;;41.42;17.98;;;8.50;94.60;;;;;;4976960;28;20038;-78
2023/04/16 00:58:25;;;;;;;42.75;19.23;;;8.50;94.50;;;;;;4976891;28;20049;-81
2023/04/16 01:00:50;;;;;;;33.75;15.88;;;8.60;94.40;;;;;;4994294;28;20038;-79
2023/04/16 01:03:16;;;;;;;35.55;15.50;;;8.60;94.40;;;;;;4980869;28;20112;-80
2023/04/16 01:05:44;;;;;;;37.22;18.05;;;8.60;94.40;;;;;;4996844;28;20047;-79
2023/04/16 01:08:17;;;;;;;40.78;17.08;;;8.60;94.30;;;;;;4996891;28;20054;-80
2023/04/16 01:10:43;;;;;;;44.17;20.27;;;8.60;94.40;;;;;;4976532;28;20045;-81
2023/04/16 01:13:10;;;;;;;48.28;22.00;;;8.60;94.30;;;;;;4961143;28;20053;-80
2023/04/16 01:15:36;;;;;;;38.10;19.08;;;8.50;94.40;;;;;;4961415;28;20046;-78
2023/04/16 01:18:02;;;;;;;44.05;21.92;;;8.60;94.40;;;;;;4945316;28;20050;-80
2023/04/16 01:20:28;;;;;;;38.55;20.48;;;8.50;94.40;;;;;;4946392;28;20101;-78
2023/04/16 01:22:54;;;;;;;47.72;21.63;;;8.60;94.40;;;;;;4961816;28;20085;-80
2023/04/16 01:25:20;;;;;;;43.72;21.90;;;8.60;94.40;;;;;;4961981;28;20066;-78
2023/04/16 01:27:48;;;;;;;46.80;20.92;;;8.60;94.50;;;;;;4981033;28;20045;-77
2023/04/16 01:30:14;;;;;;;40.97;20.67;;;8.50;94.40;;;;;;4980621;28;20081;-80
2023/04/16 01:32:40;;;;;;;47.80;21.38;;;8.60;94.50;;;;;;4963893;28;20074;-81
2023/04/16 01:35:06;;;;;;;54.03;21.95;;;8.60;94.40;;;;;;4969462;28;20030;-80
2023/04/16 01:37:33;;;;;;;47.55;23.25;;;8.50;94.50;;;;;;5005850;28;20034;-80
2023/04/16 01:39:58;;;;;;;56.50;23.48;;;8.60;94.50;;;;;;4989734;28;20032;-80
2023/04/16 01:42:24;;;;;;;59.55;24.17;;;8.60;94.40;;;;;;5003427;28;20039;-79
2023/04/16 01:44:50;;;;;;;59.45;26.38;;;8.60;94.50;;;;;;4999340;28;20038;-80
2023/04/16 01:47:16;;;;;;;54.63;24.90;;;8.60;94.50;;;;;;4979615;28;20061;-79
2023/04/16 01:49:44;;;;;;;53.13;24.88;;;8.60;94.50;;;;;;4984278;28;20125;-79
2023/04/16 01:52:10;;;;;;;61.58;25.15;;;8.60;94.60;;;;;;4965002;28;20477;-78
2023/04/16 01:54:35;;;;;;;66.88;26.55;;;8.60;94.50;;;;;;4948149;28;20125;-80
2023/04/16 01:57:01;;;;;;;55.63;22.70;;;8.50;94.50;;;;;;4979589;28;20130;-80
2023/04/16 01:59:27;;;;;;;61.17;26.95;;;8.60;94.50;;;;;;4980529;28;20069;-79
2023/04/16 02:01:53;;;;;;;49.63;21.05;;;8.60;94.40;;;;;;4980363;28;20042;-80
2023/04/16 02:04:19;;;;;;;51.95;23.17;;;8.60;94.50;;;;;;4980080;28;20046;-80
2023/04/16 02:06:44;;;;;;;52.20;22.88;;;8.50;94.50;;;;;;4963665;28;20046;-80
2023/04/16 02:09:10;;;;;;;61.75;24.90;;;8.50;94.60;;;;;;4964239;28;20038;-78
2023/04/16 02:11:36;;;;;;;60.15;24.65;;;8.60;94.60;;;;;;4972260;28;20042;-80
2023/04/16 02:14:01;;;;;;;63.35;23.63;;;8.60;94.70;;;;;;4998502;28;20077;-78
2023/04/16 02:16:27;;;;;;;68.93;27.17;;;8.60;94.60;;;;;;4999944;28;20084;-81
2023/04/16 02:18:53;;;;;;;56.53;23.77;;;8.50;94.60;;;;;;4951455;28;20042;-80
2023/04/16 02:21:19;;;;;;;63.88;24.52;;;8.50;94.60;;;;;;4967344;28;20041;-79
2023/04/16 02:23:46;;;;;;;68.18;27.42;;;8.50;94.60;;;;;;4999460;28;20041;-80
2023/04/16 02:26:12;;;;;;;57.08;22.63;;;8.50;94.70;;;;;;4983535;28;20049;-81
2023/04/16 02:28:38;;;;;;;55.67;23.52;;;8.60;94.80;;;;;;4983406;28;20048;-79
2023/04/16 02:31:04;;;;;;;63.50;26.65;;;8.60;94.70;;;;;;4999325;28;20033;-79
2023/04/16 02:33:30;;;;;;;64.45;25.73;;;8.50;94.70;;;;;;4983254;28;20518;-81
2023/04/16 02:35:56;;;;;;;62.70;26.38;;;8.50;94.70;;;;;;4964003;28;20039;-79
2023/04/16 02:38:22;;;;;;;61.15;28.08;;;8.60;94.80;;;;;;4964385;28;20129;-80
2023/04/16 02:40:48;;;;;;;54.28;24.98;;;8.50;94.80;;;;;;4963847;28;20061;-78
2023/04/16 02:43:13;;;;;;;55.30;26.40;;;8.50;94.80;;;;;;4979787;28;20045;-80
2023/04/16 02:45:39;;;;;;;62.70;27.38;;;8.50;94.90;;;;;;4963588;28;20042;-80
2023/04/16 02:48:07;;;;;;;64.45;27.98;;;8.50;94.90;;;;;;4964228;28;20073;-79
2023/04/16 02:50:33;;;;;;;57.20;26.23;;;8.50;94.90;;;;;;4999249;28;20037;-78
2023/04/16 02:52:58;;;;;;;61.60;25.65;;;8.50;94.90;;;;;;4966660;28;20382;-80
2023/04/16 02:55:24;;;;;;;57.80;26.25;;;8.50;94.90;;;;;;4998969;28;20100;-79
2023/04/16 02:57:51;;;;;;;60.95;27.17;;;8.50;94.90;;;;;;4982511;28;20437;-81
2023/04/16 03:00:17;;;;;;;60.40;24.85;;;8.50;95.00;;;;;;4998715;28;20394;-80
2023/04/16 03:02:43;;;;;;;58.08;24.95;;;8.50;94.90;;;;;;4982284;28;20132;-79
2023/04/16 03:05:09;;;;;;;57.88;25.45;;;8.50;94.90;;;;;;4998756;28;20520;-80
2023/04/16 03:07:34;;;;;;;58.42;25.85;;;8.60;94.90;;;;;;4998185;28;20145;-81
2023/04/16 03:10:00;;;;;;;60.30;26.27;;;8.60;94.90;;;;;;4982738;28;20088;-81
2023/04/16 03:12:26;;;;;;;69.30;28.55;;;8.60;94.90;;;;;;4966124;28;20097;-80
2023/04/16 03:14:52;;;;;;;57.50;25.25;;;8.60;94.90;;;;;;4998524;28;20053;-80
2023/04/16 03:17:17;;;;;;;54.92;25.00;;;8.50;94.90;;;;;;4998180;28;20038;-81
2023/04/16 03:19:43;;;;;;;57.13;27.42;;;8.60;94.90;;;;;;4982106;28;20120;-82
2023/04/16 03:22:09;;;;;;;64.00;24.83;;;8.60;94.80;;;;;;4997835;28;20088;-81
2023/04/16 03:24:35;;;;;;;65.45;28.70;;;8.60;94.80;;;;;;4981144;28;20045;-80
2023/04/16 03:27:01;;;;;;;57.97;25.33;;;8.60;94.80;;;;;;4998179;28;20100;-80
2023/04/16 03:29:26;;;;;;;58.22;26.77;;;8.60;94.80;;;;;;5014995;28;20107;-78
2023/04/16 03:31:52;;;;;;;62.80;27.55;;;8.60;94.80;;;;;;4998338;28;20505;-81
2023/04/16 03:34:18;;;;;;;56.42;25.52;;;8.60;94.90;;;;;;4998104;28;20038;-82
2023/04/16 03:36:44;;;;;;;65.75;30.50;;;8.60;94.90;;;;;;4997684;28;20132;-81
2023/04/16 03:39:10;;;;;;;68.03;29.80;;;8.60;94.80;;;;;;5014343;28;20050;-78
2023/04/16 03:41:35;;;;;;;65.72;30.08;;;8.60;94.80;;;;;;4997095;28;20045;-81
2023/04/16 03:44:01;;;;;;;69.38;28.67;;;8.60;94.90;;;;;;4997409;28;20038;-81
2023/04/16 03:46:27;;;;;;;72.45;30.67;;;8.60;94.90;;;;;;4997327;28;20038;-80
2023/04/16 03:48:52;;;;;;;74.03;32.15;;;8.60;94.90;;;;;;4981640;28;20395;-80
2023/04/16 03:51:18;;;;;;;69.82;30.90;;;8.60;95.00;;;;;;4981783;28;20034;-79
2023/04/16 03:53:44;;;;;;;66.07;28.85;;;8.50;95.00;;;;;;4965392;28;20060;-79
2023/04/16 03:56:09;;;;;;;58.30;27.65;;;8.50;95.00;;;;;;4997433;28;20061;-79
2023/04/16 03:58:35;;;;;;;80.15;32.50;;;8.60;95.00;;;;;;4997666;28;20069;-79
2023/04/16 04:01:01;;;;;;;77.88;30.65;;;8.60;95.00;;;;;;4949370;28;20038;-81
2023/04/16 04:03:26;;;;;;;76.60;32.78;;;8.60;95.00;;;;;;4981362;28;20092;-81
2023/04/16 04:05:52;;;;;;;76.18;31.65;;;8.60;95.10;;;;;;4997306;28;20038;-80
2023/04/16 04:08:18;;;;;;;65.82;28.92;;;8.60;95.00;;;;;;4997617;28;20046;-80
2023/04/16 04:10:46;;;;;;;70.60;29.08;;;8.60;95.10;;;;;;4981843;28;20045;-79
2023/04/16 04:13:12;;;;;;;71.82;28.75;;;8.60;95.10;;;;;;4977235;28;20050;-78
2023/04/16 04:15:38;;;;;;;82.65;30.20;;;8.60;95.10;;;;;;4961412;28;20057;-79
2023/04/16 04:18:03;;;;;;;64.13;26.95;;;8.60;95.10;;;;;;4961414;28;20071;-78
2023/04/16 04:20:29;;;;;;;67.80;26.95;;;8.60;95.20;;;;;;4977811;28;20042;-79
2023/04/16 04:22:55;;;;;;;79.65;31.88;;;8.60;95.10;;;;;;4946677;28;20077;-77
2023/04/16 04:25:20;;;;;;;72.15;30.70;;;8.60;95.10;;;;;;4953451;28;20062;-78
2023/04/16 04:27:46;;;;;;;72.93;27.38;;;8.50;95.10;;;;;;4960953;28;20409;-78
2023/04/16 04:30:12;;;;;;;68.15;28.60;;;8.50;95.20;;;;;;4956234;28;20572;-78
2023/04/16 04:32:37;;;;;;;67.28;27.63;;;8.50;95.20;;;;;;4954626;28;20041;-79
2023/04/16 04:35:03;;;;;;;66.82;27.40;;;8.50;95.20;;;;;;4951473;28;20039;-78
2023/04/16 04:37:29;;;;;;;65.85;28.00;;;8.60;95.20;;;;;;4947276;28;20042;-80
2023/04/16 04:39:55;;;;;;;58.20;26.52;;;8.50;95.20;;;;;;4950614;28;20034;-77
2023/04/16 04:42:21;;;;;;;75.30;29.85;;;8.50;95.30;;;;;;4965217;28;20133;-78
2023/04/16 04:44:47;;;;;;;74.68;28.67;;;8.50;95.30;;;;;;4949076;28;20049;-78
2023/04/16 04:47:13;;;;;;;70.32;27.65;;;8.50;95.30;;;;;;4969577;28;20049;-78
2023/04/16 04:49:39;;;;;;;72.05;26.70;;;8.60;95.30;;;;;;4973493;28;20042;-78
2023/04/16 04:52:05;;;;;;;66.18;27.10;;;8.60;95.40;;;;;;4951653;28;20089;-77
2023/04/16 04:54:31;;;;;;;81.43;28.17;;;8.50;95.30;;;;;;4955760;28;20050;-77
2023/04/16 04:56:57;;;;;;;76.80;27.63;;;8.50;95.30;;;;;;4965821;28;20039;-80
2023/04/16 04:59:24;;;;;;;78.30;30.33;;;8.50;95.40;;;;;;4957353;28;20058;-80
2023/04/16 05:01:50;;;;;;;70.25;29.42;;;8.50;95.40;;;;;;4941755;28;20438;-80
2023/04/16 05:04:16;;;;;;;59.92;23.30;;;8.50;95.40;;;;;;4943589;28;20178;-79
2023/04/16 05:06:42;;;;;;;56.50;20.73;;;8.50;95.40;;;;;;4969135;28;20050;-78
2023/04/16 05:09:10;;;;;;;67.85;23.52;;;8.60;95.40;;;;;;4965782;28;20078;-79
2023/04/16 05:11:37;;;;;;;70.80;24.30;;;8.50;95.30;;;;;;4987936;28;20115;-80
2023/04/16 05:14:03;;;;;;;74.88;23.70;;;8.50;95.40;;;;;;4960912;28;20054;-80
2023/04/16 05:16:29;;;;;;;64.65;21.20;;;8.50;95.40;;;;;;4960688;28;20491;-78
2023/04/16 05:18:55;;;;;;;64.82;21.27;;;8.50;95.40;;;;;;4976562;28;20398;-79
2023/04/16 05:21:21;;;;;;;66.43;25.02;;;8.50;95.40;;;;;;4960759;28;20045;-80
2023/04/16 05:23:47;;;;;;;59.35;22.95;;;8.50;95.40;;;;;;4960212;28;20048;-78
2023/04/16 05:26:12;;;;;;;55.83;20.25;;;8.60;95.40;;;;;;4960363;28;20038;-80
2023/04/16 05:28:38;;;;;;;56.75;22.02;;;8.60;95.40;;;;;;4976381;28;20091;-78
2023/04/16 05:31:04;;;;;;;69.13;25.20;;;8.60;95.40;;;;;;4960766;28;20085;-80
2023/04/16 05:33:29;;;;;;;56.40;21.08;;;8.60;95.40;;;;;;4960351;28;20042;-79
2023/04/16 05:35:55;;;;;;;57.78;21.50;;;8.50;95.40;;;;;;4960260;28;20086;-80
2023/04/16 05:38:21;;;;;;;77.57;24.13;;;8.50;95.40;;;;;;4960377;28;20491;-81
2023/04/16 05:40:46;;;;;;;62.47;22.48;;;8.60;95.40;;;;;;4976619;28;20077;-81
2023/04/16 05:43:12;;;;;;;67.90;20.88;;;8.60;95.50;;;;;;4960484;28;20050;-79
2023/04/16 05:45:39;;;;;;;71.20;21.67;;;8.60;95.50;;;;;;4976709;28;20042;-79
2023/04/16 05:48:08;;;;;;;57.67;21.60;;;8.60;95.40;;;;;;4947590;28;20053;-79
2023/04/16 05:50:34;;;;;;;67.38;25.27;;;8.60;95.40;;;;;;4964421;28;20517;-78
2023/04/16 05:53:01;;;;;;;65.20;24.85;;;8.60;95.30;;;;;;4963740;28;20038;-77
2023/04/16 05:55:26;;;;;;;54.20;22.40;;;8.60;95.30;;;;;;4980277;28;20086;-78
2023/04/16 05:57:52;;;;;;;62.20;24.58;;;8.70;95.40;;;;;;4947812;28;20081;-79
2023/04/16 06:00:18;;;;;;;60.10;23.63;;;8.70;95.30;;;;;;4964006;28;20054;-78
2023/04/16 06:02:43;;;;;;;52.65;20.42;;;8.60;95.30;;;;;;4963451;28;20490;-79
2023/04/16 06:05:09;;;;;;;66.63;25.50;;;8.70;95.30;;;;;;4979849;28;20034;-80
2023/04/16 06:07:35;;;;;;;62.05;20.77;;;8.70;95.20;;;;;;4963411;28;20043;-79
2023/04/16 06:10:01;;;;;;;56.70;20.05;;;8.70;95.10;;;;;;4931878;28;20034;-78
2023/04/16 06:12:26;;;;;;;51.85;18.55;;;8.70;94.90;;;;;;4991325;28;20058;-78
2023/04/16 06:14:52;;;;;;;58.45;23.33;;;8.80;94.90;;;;;;4983674;28;20445;-78
2023/04/16 06:17:18;;;;;;;55.97;20.67;;;8.70;94.70;;;;;;4999232;28;20054;-78
2023/04/16 06:19:44;;;;;;;55.90;21.17;;;8.70;94.80;;;;;;4982360;28;20409;-79
2023/04/16 06:22:10;;;;;;;47.25;18.23;;;8.80;94.70;;;;;;4997645;28;20405;-80
2023/04/16 06:24:35;;;;;;;48.58;19.50;;;8.80;94.70;;;;;;4982582;28;20124;-78
2023/04/16 06:27:01;;;;;;;56.88;21.35;;;8.70;94.50;;;;;;4999561;28;20084;-78
2023/04/16 06:29:27;;;;;;;46.47;18.73;;;8.70;94.40;;;;;;4999474;28;20532;-80
2023/04/16 06:31:53;;;;;;;57.20;20.52;;;8.70;94.40;;;;;;4982900;28;20042;-79
2023/04/16 06:34:19;;;;;;;57.55;20.40;;;8.80;94.50;;;;;;4982314;28;20045;-81
2023/04/16 06:36:45;;;;;;;53.83;22.17;;;8.70;94.50;;;;;;4983472;28;20458;-80
2023/04/16 06:39:11;;;;;;;70.50;23.73;;;8.80;94.50;;;;;;4983024;28;20589;-80
2023/04/16 06:41:36;;;;;;;55.35;21.08;;;8.80;94.50;;;;;;4966652;28;20073;-81
2023/04/16 06:44:02;;;;;;;64.75;22.35;;;8.80;94.50;;;;;;4982856;28;20046;-79
2023/04/16 06:46:28;;;;;;;56.88;20.80;;;8.80;94.40;;;;;;4998978;28;20414;-82
2023/04/16 06:48:53;;;;;;;67.22;22.90;;;8.80;94.40;;;;;;4982911;28;20042;-79
2023/04/16 06:51:19;;;;;;;71.95;24.48;;;8.80;94.50;;;;;;4979240;28;20038;-80
2023/04/16 06:53:45;;;;;;;64.18;23.65;;;8.80;94.40;;;;;;4974692;28;20163;-78
2023/04/16 06:56:10;;;;;;;53.55;21.65;;;8.80;94.50;;;;;;4998656;28;20048;-80
2023/04/16 06:58:36;;;;;;;52.97;22.70;;;8.80;94.50;;;;;;4963008;28;20069;-79
2023/04/16 07:01:02;;;;;;;53.55;20.70;;;8.90;94.50;;;;;;4995416;28;20046;-80
2023/04/16 07:03:28;;;;;;;56.65;21.77;;;8.90;94.50;;;;;;4978312;28;20160;-77
2023/04/16 07:05:53;;;;;;;50.80;22.25;;;8.90;94.30;;;;;;4979829;28;20533;-80
2023/04/16 07:08:19;;;;;;;47.03;19.58;;;8.90;94.20;;;;;;4978721;28;20048;-77
2023/04/16 07:10:44;;;;;;;54.25;20.55;;;8.90;94.20;;;;;;4994330;28;20505;-79
2023/04/16 07:13:10;;;;;;;41.22;17.60;;;9.00;94.00;;;;;;4946064;28;20077;-78
2023/04/16 07:15:36;;;;;;;47.90;17.42;;;9.00;94.10;;;;;;4974932;28;20121;-79
2023/04/16 07:18:01;;;;;;;38.63;17.38;;;9.00;93.90;;;;;;4959812;28;20513;-77
2023/04/16 07:20:27;;;;;;;35.05;15.32;;;9.00;93.90;;;;;;4928391;28;20125;-78
2023/04/16 07:22:53;;;;;;;32.88;15.23;;;9.00;93.80;;;;;;4960235;28;20038;-77
2023/04/16 07:25:19;;;;;;;42.17;17.85;;;9.00;93.80;;;;;;4959151;28;20057;-79
2023/04/16 07:27:45;;;;;;;48.72;18.05;;;9.00;93.50;;;;;;4960384;28;20398;-80
2023/04/16 07:30:10;;;;;;;43.28;16.42;;;9.10;93.60;;;;;;4964127;28;20041;-80
2023/04/16 07:32:36;;;;;;;41.13;16.25;;;9.10;93.50;;;;;;4959885;28;20070;-81
2023/04/16 07:35:02;;;;;;;34.55;16.58;;;9.10;93.50;;;;;;4975072;28;20078;-81
2023/04/16 07:37:28;;;;;;;46.72;15.77;;;9.10;93.50;;;;;;4943958;28;20406;-80
2023/04/16 07:39:56;;;;;;;33.72;16.63;;;9.10;93.40;;;;;;4975892;28;20057;-80
2023/04/16 07:42:22;;;;;;;37.28;16.58;;;9.00;93.50;;;;;;4975575;28;20077;-79
2023/04/16 07:44:48;;;;;;;37.97;17.83;;;9.10;93.40;;;;;;4975534;28;20039;-78
2023/04/16 07:47:13;;;;;;;45.03;18.30;;;9.10;93.50;;;;;;4977519;28;20493;-79
2023/04/16 07:49:39;;;;;;;43.72;16.92;;;9.10;93.40;;;;;;4997292;28;20050;-80
2023/04/16 07:52:05;;;;;;;42.92;16.88;;;9.20;93.40;;;;;;5002358;28;20018;-80
2023/04/16 07:54:31;;;;;;;41.50;16.85;;;9.20;93.40;;;;;;5000749;28;20034;-80
2023/04/16 07:56:56;;;;;;;39.42;16.88;;;9.10;93.30;;;;;;4994461;28;20026;-81
2023/04/16 07:59:22;;;;;;;32.13;15.20;;;9.20;93.40;;;;;;4991354;28;20065;-82
2023/04/16 08:01:48;;;;;;;32.63;15.25;;;9.20;93.40;;;;;;4958137;28;20070;-81
2023/04/16 08:04:15;;;;;;;33.08;14.68;;;9.30;93.40;;;;;;4966349;28;20050;-81
2023/04/16 08:06:41;;;;;;;36.17;15.65;;;9.20;93.40;;;;;;4958060;28;20125;-82
2023/04/16 08:09:07;;;;;;;38.90;15.88;;;9.30;93.40;;;;;;4941215;28;20126;-81
2023/04/16 08:11:33;;;;;;;40.97;17.83;;;9.30;93.30;;;;;;4956905;28;20042;-81
2023/04/16 08:13:58;;;;;;;41.83;18.73;;;9.30;93.20;;;;;;4955568;28;20038;-81
2023/04/16 08:16:24;;;;;;;54.05;18.88;;;9.30;93.20;;;;;;4944946;28;20042;-81
2023/04/16 08:18:50;;;;;;;42.30;15.77;;;9.30;93.20;;;;;;4961932;28;20088;-80
2023/04/16 08:21:15;;;;;;;50.83;18.35;;;9.30;93.20;;;;;;4978163;28;20089;-79
2023/04/16 08:23:41;;;;;;;46.35;20.13;;;9.30;93.10;;;;;;4977479;28;20193;-81
2023/04/16 08:26:07;;;;;;;45.88;17.88;;;9.30;93.00;;;;;;4976541;28;20045;-78
2023/04/16 08:28:32;;;;;;;46.95;17.95;;;9.30;93.10;;;;;;4960641;28;20047;-80
2023/04/16 08:30:58;;;;;;;41.08;17.45;;;9.30;93.10;;;;;;4976375;28;20105;-79
2023/04/16 08:33:24;;;;;;;44.28;19.85;;;9.40;93.10;;;;;;4976880;28;20045;-80
2023/04/16 08:35:49;;;;;;;46.25;18.52;;;9.40;93.20;;;;;;4978187;28;20046;-80
2023/04/16 08:38:15;;;;;;;47.22;17.98;;;9.40;93.20;;;;;;4976883;28;20042;-79
2023/04/16 08:40:41;;;;;;;40.05;16.10;;;9.50;93.20;;;;;;4976839;28;20045;-80
2023/04/16 08:43:13;;;;;;;42.97;16.80;;;9.50;93.20;;;;;;4976523;28;20515;-81
2023/04/16 08:45:43;;;;;;;44.15;18.33;;;9.50;93.10;;;;;;4976570;28;20047;-80
2023/04/16 08:48:10;;;;;;;28.60;15.13;;;9.50;93.00;;;;;;4960020;28;20454;-79
2023/04/16 08:50:37;;;;;;;36.40;17.20;;;9.50;93.00;;;;;;4960484;28;20501;-81
2023/04/16 08:53:07;;;;;;;34.75;15.98;;;9.50;93.00;;;;;;4976618;28;20338;-81
2023/04/16 08:55:40;;;;;;;39.03;17.25;;;9.50;93.00;;;;;;4970651;28;20540;-79
2023/04/16 08:58:26;;;;;;;32.33;15.65;;;9.50;92.90;;;;;;4960026;28;20050;-80
2023/04/16 09:00:53;;;;;;;41.35;16.70;;;9.50;92.90;;;;;;4976589;28;20137;-80
2023/04/16 09:03:20;;;;;;;38.55;16.52;;;9.60;92.70;;;;;;4960091;28;20098;-80
2023/04/16 09:05:46;;;;;;;50.08;18.02;;;9.60;92.60;;;;;;4944672;28;20038;-80
2023/04/16 09:08:12;;;;;;;37.25;18.33;;;9.60;92.60;;;;;;4975990;28;20047;-78
2023/04/16 09:10:38;;;;;;;35.95;16.42;;;9.70;92.70;;;;;;4944634;28;20077;-80
2023/04/16 09:13:04;;;;;;;40.92;17.13;;;9.70;92.50;;;;;;4986634;28;20129;-80
2023/04/16 09:15:30;;;;;;;42.47;16.13;;;9.70;92.60;;;;;;4992723;28;20454;-79
2023/04/16 09:17:56;;;;;;;41.35;17.73;;;9.70;92.50;;;;;;4992270;28;20375;-79
2023/04/16 09:20:22;;;;;;;44.22;17.80;;;9.80;92.50;;;;;;4992505;28;20056;-78
2023/04/16 09:22:48;;;;;;;48.55;20.35;;;9.70;92.60;;;;;;4962981;28;20494;-78
2023/04/16 09:25:14;;;;;;;36.08;16.60;;;9.80;92.50;;;;;;4979857;28;20487;-79
2023/04/16 09:27:39;;;;;;;40.83;16.77;;;9.80;92.50;;;;;;4964438;28;20445;-79
2023/04/16 09:30:22;;;;;;;33.88;17.13;;;9.90;92.30;;;;;;4995053;28;20125;-81
2023/04/16 09:32:50;;;;;;;41.95;16.63;;;10.00;92.10;;;;;;4995983;28;20038;-77
2023/04/16 09:35:19;;;;;;;35.25;15.60;;;10.00;92.10;;;;;;4995977;28;20548;-77
2023/04/16 09:37:55;;;;;;;39.10;17.00;;;10.00;92.00;;;;;;4995897;28;20057;-78
2023/04/16 09:40:26;;;;;;;41.38;18.00;;;10.10;91.80;;;;;;4979834;28;20128;-80
2023/04/16 09:42:55;;;;;;;38.60;17.55;;;10.10;91.80;;;;;;4979440;28;20046;-76
2023/04/16 09:45:21;;;;;;;33.33;16.77;;;10.20;91.80;;;;;;4995458;28;20079;-77
2023/04/16 09:47:46;;;;;;;46.10;17.10;;;10.20;91.80;;;;;;4995091;28;20048;-78
2023/04/16 09:50:18;;;;;;;38.13;16.67;;;10.30;91.80;;;;;;4995246;28;20038;-77
2023/04/16 09:52:47;;;;;;;36.08;16.02;;;10.30;91.70;;;;;;4995890;28;20392;-78
2023/04/16 09:55:13;;;;;;;34.08;17.08;;;10.40;91.60;;;;;;4995481;28;20050;-82
2023/04/16 09:57:39;;;;;;;31.98;15.05;;;10.40;91.30;;;;;;4996021;28;20053;-79
2023/04/16 10:00:07;;;;;;;37.33;16.05;;;10.40;91.20;;;;;;4995407;28;20127;-78
2023/04/16 10:02:34;;;;;;;32.17;16.27;;;10.40;91.10;;;;;;4979261;28;20108;-79
2023/04/16 10:05:03;;;;;;;42.35;17.23;;;10.40;91.00;;;;;;4994631;28;20069;-78
2023/04/16 10:07:33;;;;;;;33.50;17.27;;;10.50;91.00;;;;;;4995566;28;20055;-80
2023/04/16 10:09:58;;;;;;;35.45;17.90;;;10.50;91.00;;;;;;4995484;28;20069;-79
2023/04/16 10:12:24;;;;;;;37.60;16.05;;;10.50;91.00;;;;;;4946945;28;20051;-80
2023/04/16 10:14:50;;;;;;;38.33;15.13;;;10.50;90.90;;;;;;4978887;28;20054;-79
2023/04/16 10:17:16;;;;;;;35.90;17.77;;;10.60;90.60;;;;;;4962641;28;20039;-79
2023/04/16 10:19:42;;;;;;;31.45;16.73;;;10.60;90.40;;;;;;4978992;28;20056;-78
2023/04/16 10:22:08;;;;;;;37.63;17.08;;;10.60;90.30;;;;;;4978350;28;20057;-80
2023/04/16 10:24:34;;;;;;;31.92;14.45;;;10.60;90.20;;;;;;4978621;28;20496;-80
2023/04/16 10:27:00;;;;;;;27.27;16.00;;;10.70;90.20;;;;;;4978718;28;20046;-79
2023/04/16 10:29:28;;;;;;;28.42;16.90;;;10.80;89.80;;;;;;4979284;28;20041;-81
2023/04/16 10:31:54;;;;;;;32.08;16.08;;;10.90;89.70;;;;;;4978716;28;20044;-80
2023/04/16 10:34:21;;;;;;;36.65;17.30;;;10.90;89.60;;;;;;4978064;28;20034;-81
2023/04/16 10:36:49;;;;;;;36.95;18.05;;;10.80;89.60;;;;;;4994247;28;20546;-80
2023/04/16 10:39:19;;;;;;;44.15;18.75;;;10.90;89.60;;;;;;4978370;28;20039;-80
2023/04/16 10:41:45;;;;;;;38.60;17.80;;;10.90;89.70;;;;;;4978381;28;20045;-79
2023/04/16 10:44:11;;;;;;;33.50;18.08;;;10.90;89.50;;;;;;4978172;28;20042;-81
2023/04/16 10:46:48;;;;;;;37.33;17.05;;;10.80;89.50;;;;;;4978179;28;20380;-78
2023/04/16 10:49:14;;;;;;;34.05;17.75;;;10.90;89.60;;;;;;4994490;28;20046;-80
2023/04/16 10:51:40;;;;;;;35.72;18.23;;;10.90;89.60;;;;;;4994294;28;20042;-79
2023/04/16 10:54:13;;;;;;;35.30;16.92;;;10.90;89.40;;;;;;4976716;28;20034;-80
2023/04/16 10:56:39;;;;;;;33.63;16.90;;;10.90;89.30;;;;;;4974855;28;20062;-80
2023/04/16 10:59:06;;;;;;;33.47;18.65;;;10.90;89.20;;;;;;4974468;28;20509;-80
2023/04/16 11:01:39;;;;;;;36.70;18.67;;;10.90;89.10;;;;;;4958838;28;20046;-81
2023/04/16 11:04:20;;;;;;;30.73;16.92;;;10.90;89.30;;;;;;4958203;28;20495;-81
2023/04/16 11:07:05;;;;;;;34.22;18.10;;;11.00;89.30;;;;;;4974702;28;20038;-82
2023/04/16 11:09:46;;;;;;;;;;;11.00;89.30;;;;;;4975074;28;20082;-80
2023/04/16 11:12:26;;;;;;;31.08;17.13;;;10.90;89.30;;;;;;4968005;28;19922;-81
2023/04/16 11:15:05;;;;;;;28.73;17.48;;;11.00;89.20;;;;;;4993982;28;20105;-79
2023/04/16 11:17:39;;;;;;;28.52;18.33;;;10.90;89.10;;;;;;4993733;28;20057;-79
2023/04/16 11:20:22;;;;;;;31.85;18.73;;;10.90;88.90;;;;;;4994003;28;20049;-78
2023/04/16 11:22:49;;;;;;;34.35;17.17;;;11.00;89.00;;;;;;4977790;28;20049;-80
2023/04/16 11:25:20;;;;;;;28.80;15.43;;;11.00;89.00;;;;;;4977625;28;20044;-80
2023/04/16 11:27:46;;;;;;;28.80;16.65;;;11.00;88.80;;;;;;4993517;28;20173;-80
2023/04/16 11:30:12;;;;;;;27.48;16.00;;;11.00;88.70;;;;;;4960761;28;20128;-79
2023/04/16 11:32:38;;;;;;;36.95;18.45;;;11.00;88.60;;;;;;4993455;28;20042;-78
2023/04/16 11:35:15;;;;;;;28.10;16.40;;;11.00;88.60;;;;;;4977732;28;20510;-79
2023/04/16 11:37:41;;;;;;;31.05;16.00;;;11.00;88.70;;;;;;4977539;28;20102;-79
2023/04/16 11:40:08;;;;;;;27.15;14.80;;;11.00;88.60;;;;;;4993837;28;20046;-80
2023/04/16 11:42:36;;;;;;;28.02;15.68;;;11.00;88.60;;;;;;4977407;28;20046;-82
2023/04/16 11:45:02;;;;;;;29.05;16.40;;;11.00;88.40;;;;;;4976056;28;20038;-79
2023/04/16 11:47:40;;;;;;;28.55;15.57;;;11.00;88.30;;;;;;4977054;28;20042;-79
2023/04/16 11:50:21;;;;;;;34.22;17.27;;;11.00;88.20;;;;;;4991723;28;20038;-81
2023/04/16 11:52:47;;;;;;;29.95;16.10;;;11.00;88.30;;;;;;4973572;28;20043;-78
2023/04/16 11:55:14;;;;;;;34.53;17.23;;;11.00;88.30;;;;;;4964006;28;20042;-78
2023/04/16 11:57:40;;;;;;;29.88;16.70;;;11.00;88.40;;;;;;4992353;28;20052;-78
2023/04/16 12:00:12;;;;;;;30.20;16.70;;;11.00;88.40;;;;;;4993021;28;20125;-79
2023/04/16 12:02:39;;;;;;;39.70;17.85;;;11.00;88.40;;;;;;4976571;28;20042;-80
2023/04/16 12:05:24;;;;;;;35.55;18.75;;;11.00;88.30;;;;;;4992871;28;20042;-79
2023/04/16 12:07:50;;;;;;;32.88;17.50;;;11.00;88.40;;;;;;4993059;28;20448;-78
2023/04/16 12:10:16;;;;;;;34.70;17.60;;;11.10;88.60;;;;;;4992994;28;20503;-80
2023/04/16 12:12:41;;;;;;;29.05;16.67;;;11.10;88.50;;;;;;4976465;28;20056;-80
2023/04/16 12:15:08;;;;;;;28.60;17.52;;;11.20;88.50;;;;;;4991841;28;20042;-79
2023/04/16 12:17:34;;;;;;;24.48;16.63;;;11.20;88.50;;;;;;4957543;28;20065;-77
2023/04/16 12:20:11;;;;;;;33.10;16.30;;;11.30;88.20;;;;;;4957591;28;20050;-79
2023/04/16 12:22:46;;;;;;;27.98;17.23;;;11.40;88.10;;;;;;4957160;28;20047;-79
2023/04/16 12:25:15;;;;;;;;;;;11.50;88.00;;;;;;4989911;28;20113;-78
2023/04/16 12:27:54;;;;;;;29.00;15.57;;;11.60;88.00;;;;;;4974590;28;19929;-78
2023/04/16 12:30:25;;;;;;;36.38;16.73;;;11.60;87.80;;;;;;5022396;28;20034;-78
2023/04/16 12:33:10;;;;;;;29.40;16.63;;;11.70;87.70;;;;;;4991238;28;20039;-78
2023/04/16 12:35:36;;;;;;;27.55;15.82;;;11.70;87.50;;;;;;4976114;28;20053;-78